createdAt,value
2022-08-22T00:00:22.363Z,100.00
2022-08-22T00:02:59.072Z,100.00
2022-08-22T00:03:08.734Z,100.00
2022-08-22T00:03:28.595Z,100.00
2022-08-22T00:06:08.221Z,100.00
2022-08-22T00:08:44.926Z,100.00
2022-08-22T00:11:25.825Z,100.00
2022-08-22T00:14:02.226Z,100.00
2022-08-22T00:16:35.638Z,100.00
2022-08-22T00:19:13.401Z,100.00
2022-08-22T00:21:45.747Z,100.00
2022-08-22T00:24:20.790Z,100.00
2022-08-22T00:26:53.995Z,100.00
2022-08-22T00:29:28.726Z,100.00
2022-08-22T00:32:06.661Z,100.00
2022-08-22T00:34:40.124Z,100.00
2022-08-22T00:37:11.398Z,100.00
2022-08-22T00:39:45.540Z,100.00
2022-08-22T00:42:45.216Z,100.00
2022-08-22T00:45:34.659Z,100.00
2022-08-22T00:48:17.552Z,100.00
2022-08-22T00:51:03.223Z,100.00
2022-08-22T00:53:54.386Z,100.00
2022-08-22T00:56:48.582Z,100.00
2022-08-22T01:00:03.727Z,100.00
2022-08-22T01:02:52.279Z,100.00
2022-08-22T01:05:37.114Z,100.00
2022-08-22T01:08:16.077Z,100.00
2022-08-22T01:11:03.577Z,100.00
2022-08-22T01:13:53.254Z,100.00
2022-08-22T01:16:44.569Z,100.00
2022-08-22T01:19:44.778Z,100.00
2022-08-22T01:22:39.211Z,100.00
2022-08-22T01:25:41.034Z,100.00
2022-08-22T01:28:32.996Z,100.00
2022-08-22T01:31:32.665Z,100.00
2022-08-22T01:34:40.523Z,100.00
2022-08-22T01:37:27.657Z,100.00
2022-08-22T01:40:25.218Z,100.00
2022-08-22T01:43:05.943Z,100.00
2022-08-22T01:45:57.775Z,100.00
2022-08-22T01:48:37.063Z,100.00
2022-08-22T01:51:18.629Z,100.00
2022-08-22T01:53:56.423Z,100.00
2022-08-22T01:56:27.375Z,100.00
2022-08-22T01:58:59.977Z,100.00
2022-08-22T02:01:43.390Z,100.00
2022-08-22T02:04:19.920Z,100.00
2022-08-22T02:07:01.354Z,100.00
2022-08-22T02:09:40.810Z,100.00
2022-08-22T02:12:32.814Z,100.00
2022-08-22T02:15:15.539Z,100.00
2022-08-22T02:18:01.109Z,100.00
2022-08-22T02:20:34.317Z,100.00
2022-08-22T02:23:16.205Z,100.00
2022-08-22T02:25:54.258Z,100.00
2022-08-22T02:28:33.406Z,100.00
2022-08-22T02:31:11.596Z,100.00
2022-08-22T02:33:55.385Z,100.00
2022-08-22T02:36:27.765Z,100.00
2022-08-22T02:39:09.588Z,100.00
2022-08-22T02:41:48.734Z,100.00
2022-08-22T02:44:22.158Z,100.00
2022-08-22T02:46:57.227Z,100.00
2022-08-22T02:49:33.347Z,100.00
2022-08-22T02:52:11.133Z,100.00
2022-08-22T02:54:49.981Z,100.00
2022-08-22T02:57:24.570Z,100.00
2022-08-22T03:00:31.527Z,100.00
2022-08-22T03:03:07.674Z,100.00
2022-08-22T03:05:51.928Z,100.00
2022-08-22T03:08:24.818Z,100.00
2022-08-22T03:11:05.870Z,100.00
2022-08-22T03:13:45.154Z,100.00
2022-08-22T03:16:19.702Z,100.00
2022-08-22T03:18:57.968Z,100.00
2022-08-22T03:21:32.186Z,100.00
2022-08-22T03:24:09.058Z,100.00
2022-08-22T03:26:50.030Z,100.00
2022-08-22T03:29:22.825Z,100.00
2022-08-22T03:32:12.581Z,100.00
2022-08-22T03:34:56.419Z,100.00
2022-08-22T03:37:26.685Z,100.00
2022-08-22T03:40:03.505Z,100.00
2022-08-22T03:42:56.186Z,100.00
2022-08-22T03:45:48.717Z,100.00
2022-08-22T03:48:40.101Z,100.00
2022-08-22T03:51:32.694Z,100.00
2022-08-22T03:54:25.346Z,100.00
2022-08-22T03:57:26.835Z,100.00
2022-08-22T04:00:18.593Z,100.00
2022-08-22T04:03:17.184Z,100.00
2022-08-22T04:06:17.753Z,100.00
2022-08-22T04:09:05.552Z,100.00
2022-08-22T04:11:53.784Z,100.00
2022-08-22T04:15:01.559Z,100.00
2022-08-22T04:17:59.803Z,100.00
2022-08-22T04:21:09.677Z,100.00
2022-08-22T04:23:58.086Z,100.00
2022-08-22T04:26:35.071Z,100.00
2022-08-22T04:29:09.251Z,100.00
2022-08-22T04:31:48.407Z,100.00
2022-08-22T04:34:30.345Z,100.00
2022-08-22T04:37:05.934Z,100.00
2022-08-22T04:39:40.196Z,100.00
2022-08-22T04:42:35.121Z,100.00
2022-08-22T04:45:11.109Z,100.00
2022-08-22T04:47:42.636Z,100.00
2022-08-22T04:50:22.403Z,100.00
2022-08-22T04:53:15.218Z,100.00
2022-08-22T04:55:56.045Z,100.00
2022-08-22T04:58:34.470Z,100.00
2022-08-22T05:01:10.855Z,100.00
2022-08-22T05:03:45.989Z,100.00
2022-08-22T05:06:19.282Z,100.00
2022-08-22T05:08:53.822Z,100.00
2022-08-22T05:11:25.146Z,100.00
2022-08-22T05:13:56.307Z,100.00
2022-08-22T05:16:29.718Z,100.00
2022-08-22T05:19:00.682Z,100.00
2022-08-22T05:21:35.795Z,100.00
2022-08-22T05:24:06.918Z,100.00
2022-08-22T05:26:39.424Z,100.00
2022-08-22T05:29:10.888Z,100.00
2022-08-22T05:31:45.187Z,100.00
2022-08-22T05:34:17.466Z,100.00
2022-08-22T05:36:51.941Z,100.00
2022-08-22T05:39:25.458Z,100.00
2022-08-22T05:41:58.869Z,100.00
2022-08-22T05:44:33.129Z,100.00
2022-08-22T05:47:04.879Z,100.00
2022-08-22T05:49:39.129Z,100.00
2022-08-22T05:52:17.964Z,100.00
2022-08-22T05:54:52.284Z,100.00
2022-08-22T05:57:29.037Z,100.00
2022-08-22T06:00:04.112Z,100.00
2022-08-22T06:02:49.967Z,100.00
2022-08-22T06:05:26.019Z,100.00
2022-08-22T06:08:02.343Z,100.00
2022-08-22T06:10:41.608Z,100.00
2022-08-22T06:13:16.682Z,100.00
2022-08-22T06:16:04.138Z,100.00
2022-08-22T06:18:34.065Z,100.00
2022-08-22T06:21:06.365Z,100.00
2022-08-22T06:23:41.594Z,100.00
2022-08-22T06:26:21.022Z,100.00
2022-08-22T06:28:54.961Z,100.00
2022-08-22T06:31:28.787Z,100.00
2022-08-22T06:34:01.971Z,100.00
2022-08-22T06:36:32.083Z,100.00
2022-08-22T06:39:12.605Z,100.00
2022-08-22T06:41:46.795Z,100.00
2022-08-22T06:44:20.135Z,100.00
2022-08-22T06:46:49.517Z,100.00
2022-08-22T06:49:18.847Z,100.00
2022-08-22T06:51:48.125Z,100.00
2022-08-22T06:54:22.699Z,98.92
2022-08-22T06:56:54.557Z,100.00
2022-08-22T06:59:27.731Z,98.68
2022-08-22T07:02:03.690Z,93.58
2022-08-22T07:04:32.956Z,96.19
2022-08-22T07:07:03.577Z,91.39
2022-08-22T07:09:37.237Z,91.97
2022-08-22T07:12:12.963Z,90.42
2022-08-22T07:14:43.468Z,93.98
2022-08-22T07:17:19.607Z,96.57
2022-08-22T07:19:56.093Z,96.06
2022-08-22T07:22:26.193Z,89.49
2022-08-22T07:24:59.286Z,91.01
2022-08-22T07:27:41.128Z,88.86
2022-08-22T07:30:13.222Z,88.26
2022-08-22T07:32:50.526Z,86.15
2022-08-22T07:35:22.662Z,83.82
2022-08-22T07:37:58.771Z,83.53
2022-08-22T07:40:35.487Z,83.16
2022-08-22T07:43:12.094Z,81.63
2022-08-22T07:45:48.350Z,80.00
2022-08-22T07:48:26.302Z,78.25
2022-08-22T07:51:04.469Z,81.30
2022-08-22T07:53:40.812Z,80.30
2022-08-22T07:56:16.783Z,73.59
2022-08-22T07:58:48.834Z,81.28
2022-08-22T08:01:20.618Z,72.25
2022-08-22T08:03:54.327Z,70.23
2022-08-22T08:06:24.450Z,72.65
2022-08-22T08:08:55.502Z,70.02
2022-08-22T08:11:30.319Z,71.32
2022-08-22T08:14:02.278Z,70.31
2022-08-22T08:16:36.818Z,74.62
2022-08-22T08:19:05.178Z,75.55
2022-08-22T08:21:38.834Z,71.12
2022-08-22T08:24:09.904Z,73.38
2022-08-22T08:27:06.788Z,75.52
2022-08-22T08:29:34.752Z,75.29
2022-08-22T08:32:03.528Z,73.62
2022-08-22T08:34:34.687Z,73.82
2022-08-22T08:37:12.765Z,74.83
2022-08-22T08:39:48.722Z,71.68
2022-08-22T08:43:15.077Z,75.35
2022-08-22T08:46:10.955Z,70.52
2022-08-22T08:49:00.077Z,72.91
2022-08-22T08:51:47.440Z,73.90
2022-08-22T08:54:29.974Z,69.41
2022-08-22T08:57:08.731Z,71.82
2022-08-22T08:59:49.436Z,72.05
2022-08-22T09:02:47.021Z,71.63
2022-08-22T09:05:36.118Z,70.24
2022-08-22T09:08:35.608Z,64.62
2022-08-22T09:11:25.210Z,64.83
2022-08-22T09:14:11.914Z,67.48
2022-08-22T09:16:58.015Z,70.09
2022-08-22T09:19:54.651Z,67.22
2022-08-22T09:22:50.044Z,67.77
2022-08-22T09:25:38.394Z,65.32
2022-08-22T09:28:16.592Z,62.97
2022-08-22T09:31:47.553Z,64.86
2022-08-22T09:34:24.093Z,68.44
2022-08-22T09:37:13.183Z,62.03
2022-08-22T09:39:52.205Z,62.07
2022-08-22T09:42:24.277Z,60.07
2022-08-22T09:45:00.837Z,61.52
2022-08-22T09:47:35.795Z,59.65
2022-08-22T09:50:17.588Z,61.88
2022-08-22T09:53:04.039Z,60.60
2022-08-22T09:55:42.179Z,58.92
2022-08-22T09:58:23.745Z,56.68
2022-08-22T10:01:01.096Z,56.81
2022-08-22T10:03:54.451Z,56.43
2022-08-22T10:06:28.925Z,56.92
2022-08-22T10:09:04.980Z,60.95
2022-08-22T10:11:43.345Z,57.36
2022-08-22T10:14:22.327Z,57.95
2022-08-22T10:16:59.761Z,57.57
2022-08-22T10:19:33.919Z,57.11
2022-08-22T10:22:30.028Z,57.55
2022-08-22T10:25:25.890Z,55.79
2022-08-22T10:28:14.328Z,57.81
2022-08-22T10:30:54.956Z,61.36
2022-08-22T10:33:29.556Z,65.87
2022-08-22T10:36:04.908Z,61.95
2022-08-22T10:38:46.280Z,60.73
2022-08-22T10:41:28.734Z,57.50
2022-08-22T10:44:04.521Z,57.94
2022-08-22T10:46:38.893Z,58.05
2022-08-22T10:49:16.476Z,58.21
2022-08-22T10:51:53.243Z,57.74
2022-08-22T10:54:44.334Z,64.59
2022-08-22T10:57:25.290Z,59.27
2022-08-22T11:00:03.035Z,59.23
2022-08-22T11:03:00.965Z,61.18
2022-08-22T11:05:39.344Z,58.65
2022-08-22T11:08:34.599Z,56.25
2022-08-22T11:11:41.225Z,58.28
2022-08-22T11:14:38.122Z,53.81
2022-08-22T11:17:30.209Z,55.04
2022-08-22T11:20:13.668Z,53.25
2022-08-22T11:22:48.796Z,51.95
2022-08-22T11:25:36.019Z,54.86
2022-08-22T11:28:24.789Z,60.05
2022-08-22T11:31:09.017Z,56.37
2022-08-22T11:33:46.788Z,57.77
2022-08-22T11:36:37.663Z,56.43
2022-08-22T11:39:23.626Z,55.50
2022-08-22T11:42:02.989Z,55.63
2022-08-22T11:44:37.550Z,56.42
2022-08-22T11:47:27.266Z,54.77
2022-08-22T11:50:02.694Z,56.75
2022-08-22T11:52:53.608Z,54.22
2022-08-22T11:55:32.631Z,58.02
2022-08-22T11:58:18.329Z,53.04
2022-08-22T12:00:56.824Z,53.43
2022-08-22T12:03:42.669Z,50.38
2022-08-22T12:06:36.303Z,53.77
2022-08-22T12:09:19.298Z,49.40
2022-08-22T12:12:13.896Z,51.22
2022-08-22T12:14:51.431Z,57.49
2022-08-22T12:17:54.920Z,59.50
2022-08-22T12:20:45.451Z,56.33
2022-08-22T12:23:43.383Z,57.06
2022-08-22T12:26:27.201Z,52.06
2022-08-22T12:29:15.470Z,51.64
2022-08-22T12:32:17.278Z,51.12
2022-08-22T12:35:13.545Z,50.14
2022-08-22T12:37:53.649Z,50.67
2022-08-22T12:40:40.105Z,54.19
2022-08-22T12:43:42.352Z,49.90
2022-08-22T12:46:18.786Z,55.03
2022-08-22T12:49:01.446Z,52.51
2022-08-22T12:51:44.873Z,55.86
2022-08-22T12:54:48.165Z,57.40
2022-08-22T12:57:28.017Z,53.55
2022-08-22T13:00:02.006Z,54.63
2022-08-22T13:02:34.965Z,56.71
2022-08-22T13:05:09.973Z,54.55
2022-08-22T13:07:40.391Z,58.71
2022-08-22T13:10:34.074Z,58.97
2022-08-22T13:13:12.620Z,56.88
2022-08-22T13:15:53.653Z,56.91
2022-08-22T13:18:30.591Z,56.99
2022-08-22T13:21:02.891Z,53.81
2022-08-22T13:23:40.007Z,58.97
2022-08-22T13:26:16.348Z,56.49
2022-08-22T13:32:00.530Z,58.44
2022-08-22T13:34:43.431Z,57.73
2022-08-22T13:37:17.368Z,57.12
2022-08-22T13:39:50.496Z,56.12
2022-08-22T13:42:30.031Z,59.15
2022-08-22T13:45:05.849Z,57.61
2022-08-22T13:47:39.292Z,60.31
2022-08-22T13:50:14.835Z,55.54
2022-08-22T13:52:52.259Z,60.14
2022-08-22T13:55:29.547Z,60.66
2022-08-22T13:58:06.718Z,62.33
2022-08-22T14:01:31.319Z,58.63
2022-08-22T14:04:28.802Z,61.87
2022-08-22T14:07:19.954Z,63.41
2022-08-22T14:09:56.246Z,63.53
2022-08-22T14:12:27.231Z,65.62
2022-08-22T14:14:59.922Z,65.32
2022-08-22T14:17:32.987Z,67.05
2022-08-22T14:20:04.148Z,67.52
2022-08-22T14:22:37.226Z,65.12
2022-08-22T14:25:10.638Z,63.97
2022-08-22T14:27:43.939Z,66.10
2022-08-22T14:30:18.996Z,66.50
2022-08-22T14:32:51.767Z,67.89
2022-08-22T14:35:34.801Z,65.78
2022-08-22T14:38:27.151Z,65.55
2022-08-22T14:40:59.653Z,67.46
2022-08-22T14:43:47.305Z,64.90
2022-08-22T14:46:23.521Z,64.12
2022-08-22T14:49:13.582Z,64.55
2022-08-22T14:51:50.891Z,67.96
2022-08-22T14:54:22.271Z,69.53
2022-08-22T14:56:53.327Z,69.15
2022-08-22T14:59:38.063Z,64.16
2022-08-22T15:02:11.259Z,70.11
2022-08-22T15:04:43.129Z,70.84
2022-08-22T15:07:23.118Z,67.05
2022-08-22T15:09:54.795Z,66.08
2022-08-22T15:12:28.659Z,68.01
2022-08-22T15:15:00.484Z,69.06
2022-08-22T15:17:44.336Z,70.09
2022-08-22T15:20:15.294Z,70.56
2022-08-22T15:22:46.938Z,70.46
2022-08-22T15:25:19.605Z,70.52
2022-08-22T15:27:54.126Z,70.58
2022-08-22T15:30:34.904Z,68.67
2022-08-22T15:33:11.775Z,68.92
2022-08-22T15:35:40.482Z,69.73
2022-08-22T15:38:27.793Z,69.99
2022-08-22T15:40:57.620Z,69.37
2022-08-22T15:43:35.061Z,70.66
2022-08-22T15:46:18.511Z,70.45
2022-08-22T15:48:55.980Z,71.17
2022-08-22T15:51:38.822Z,72.51
2022-08-22T15:54:24.463Z,72.29
2022-08-22T15:57:17.597Z,72.66
2022-08-22T15:59:55.432Z,72.53
2022-08-22T16:02:35.660Z,72.60
2022-08-22T16:05:24.555Z,72.37
2022-08-22T16:08:04.124Z,71.88
2022-08-22T16:10:38.671Z,72.15
2022-08-22T16:13:33.752Z,72.17
2022-08-22T16:16:05.532Z,72.15
2022-08-22T16:19:10.847Z,73.73
2022-08-22T16:22:06.678Z,73.38
2022-08-22T16:24:50.819Z,74.21
2022-08-22T16:27:23.665Z,73.72
2022-08-22T16:30:05.220Z,73.31
2022-08-22T16:32:34.840Z,73.85
2022-08-22T16:35:03.051Z,74.43
2022-08-22T16:37:48.022Z,74.64
2022-08-22T16:40:26.717Z,74.64
2022-08-22T16:43:18.495Z,74.38
2022-08-22T16:45:48.739Z,74.79
2022-08-22T16:48:34.006Z,74.93
2022-08-22T16:51:04.917Z,75.38
2022-08-22T16:54:12.235Z,75.10
2022-08-22T16:56:54.637Z,75.96
2022-08-22T16:59:48.434Z,76.22
2022-08-22T17:02:37.648Z,76.76
2022-08-22T17:05:21.650Z,77.34
2022-08-22T17:08:04.418Z,77.45
2022-08-22T17:10:45.866Z,77.62
2022-08-22T17:13:28.027Z,79.23
2022-08-22T17:16:16.969Z,79.85
2022-08-22T17:18:56.569Z,79.55
2022-08-22T17:21:29.661Z,80.69
2022-08-22T17:24:06.130Z,82.01
2022-08-22T17:26:49.006Z,82.22
2022-08-22T17:29:32.092Z,82.26
2022-08-22T17:32:11.864Z,82.25
2022-08-22T17:34:48.754Z,82.35
2022-08-22T17:37:24.203Z,82.59
2022-08-22T17:40:34.722Z,82.67
2022-08-22T17:43:27.242Z,84.16
2022-08-22T17:46:15.562Z,80.07
2022-08-22T17:48:51.530Z,78.73
2022-08-22T17:51:28.670Z,77.17
2022-08-22T17:54:02.389Z,77.69
2022-08-22T17:56:43.637Z,76.94
2022-08-22T17:59:21.091Z,77.66
2022-08-22T18:01:51.739Z,78.69
2022-08-22T18:04:31.210Z,78.24
2022-08-22T18:07:22.131Z,78.93
2022-08-22T18:09:55.793Z,79.31
2022-08-22T18:12:34.379Z,79.52
2022-08-22T18:15:08.682Z,79.47
2022-08-22T18:17:41.477Z,79.58
2022-08-22T18:20:16.794Z,79.72
2022-08-22T18:22:49.867Z,80.25
2022-08-22T18:25:40.983Z,79.93
2022-08-22T18:28:15.388Z,81.01
2022-08-22T18:30:55.720Z,81.13
2022-08-22T18:33:32.870Z,81.86
2022-08-22T18:36:10.806Z,81.96
2022-08-22T18:38:50.113Z,82.04
2022-08-22T18:41:28.481Z,82.05
2022-08-22T18:44:00.133Z,82.71
2022-08-22T18:46:45.421Z,82.54
2022-08-22T18:49:39.505Z,82.07
2022-08-22T18:52:19.704Z,82.02
2022-08-22T18:55:04.026Z,84.02
2022-08-22T18:57:47.838Z,85.49
2022-08-22T19:00:18.616Z,86.08
2022-08-22T19:03:07.936Z,86.16
2022-08-22T19:06:13.769Z,86.65
2022-08-22T19:09:17.714Z,87.46
2022-08-22T19:12:02.129Z,87.14
2022-08-22T19:14:54.411Z,88.25
2022-08-22T19:17:43.691Z,88.65
2022-08-22T19:20:42.485Z,88.82
2022-08-22T19:23:42.350Z,89.13
2022-08-22T19:26:29.052Z,90.26
2022-08-22T19:29:00.431Z,89.26
2022-08-22T19:31:48.846Z,89.36
2022-08-22T19:34:35.907Z,89.30
2022-08-22T19:37:33.359Z,89.63
2022-08-22T19:40:05.073Z,91.08
2022-08-22T19:42:40.011Z,91.98
2022-08-22T19:45:25.719Z,92.03
2022-08-22T19:48:01.169Z,92.88
2022-08-22T19:50:34.467Z,92.35
2022-08-22T19:53:32.540Z,91.73
2022-08-22T19:56:10.270Z,92.54
2022-08-22T19:58:52.384Z,91.09
2022-08-22T20:01:45.555Z,93.92
2022-08-22T20:04:38.041Z,92.44
2022-08-22T20:07:15.293Z,92.10
2022-08-22T20:09:51.934Z,92.27
2022-08-22T20:12:31.344Z,92.39
2022-08-22T20:15:18.126Z,92.05
2022-08-22T20:18:11.705Z,92.59
2022-08-22T20:20:58.710Z,94.56
2022-08-22T20:23:31.747Z,93.83
2022-08-22T20:26:00.571Z,93.91
2022-08-22T20:28:37.931Z,93.24
2022-08-22T20:31:11.732Z,94.35
2022-08-22T20:33:43.898Z,93.60
2022-08-22T20:36:28.409Z,93.48
2022-08-22T20:39:01.564Z,94.32
2022-08-22T20:41:35.781Z,93.94
2022-08-22T20:44:12.749Z,94.41
2022-08-22T20:47:04.465Z,93.93
2022-08-22T20:49:39.098Z,94.17
2022-08-22T20:52:10.719Z,93.79
2022-08-22T20:54:40.715Z,93.56
2022-08-22T20:57:16.201Z,94.18
2022-08-22T20:59:53.239Z,94.23
2022-08-22T21:02:25.863Z,94.46
2022-08-22T21:05:05.266Z,93.78
2022-08-22T21:07:36.885Z,93.78
2022-08-22T21:10:25.473Z,93.97
2022-08-22T21:13:12.269Z,94.28
2022-08-22T21:15:42.274Z,94.86
2022-08-22T21:18:12.168Z,95.19
2022-08-22T21:20:42.870Z,95.35
2022-08-22T21:23:14.882Z,95.11
2022-08-22T21:25:58.346Z,94.74
2022-08-22T21:28:28.966Z,95.17
2022-08-22T21:30:58.221Z,95.86
2022-08-22T21:33:27.035Z,95.79
2022-08-22T21:36:01.730Z,96.19
2022-08-22T21:38:30.113Z,96.31
2022-08-22T21:41:05.413Z,96.40
2022-08-22T21:43:37.003Z,96.68
2022-08-22T21:46:06.158Z,96.61
2022-08-22T21:48:41.105Z,97.02
2022-08-22T21:51:44.633Z,97.56
2022-08-22T21:54:39.879Z,98.14
2022-08-22T21:57:32.681Z,99.07
2022-08-22T22:00:00.786Z,100.00
2022-08-22T22:02:36.565Z,99.88
2022-08-22T22:05:09.134Z,99.86
2022-08-22T22:07:40.465Z,99.85
2022-08-22T22:10:12.519Z,100.00
2022-08-22T22:12:41.857Z,100.00
2022-08-22T22:15:12.689Z,100.00
2022-08-22T22:17:40.858Z,100.00
2022-08-22T22:20:10.174Z,100.00
2022-08-22T22:22:46.234Z,100.00
2022-08-22T22:25:39.825Z,100.00
2022-08-22T22:28:06.664Z,100.00
2022-08-22T22:30:34.832Z,100.00
2022-08-22T22:33:03.027Z,100.00
2022-08-22T22:35:31.738Z,99.84
2022-08-22T22:38:01.497Z,100.00
2022-08-22T22:40:29.821Z,100.00
2022-08-22T22:42:58.016Z,100.00
2022-08-22T22:45:26.291Z,100.00
2022-08-22T22:47:54.449Z,100.00
2022-08-22T22:50:23.030Z,100.00
2022-08-22T22:52:51.104Z,100.00
2022-08-22T22:55:25.155Z,100.00
2022-08-22T22:57:58.724Z,100.00
2022-08-22T23:00:30.652Z,100.00
2022-08-22T23:03:00.598Z,100.00
2022-08-22T23:05:28.971Z,100.00
2022-08-22T23:07:57.503Z,100.00
2022-08-22T23:10:28.150Z,100.00
2022-08-22T23:12:56.423Z,100.00
2022-08-22T23:15:24.554Z,100.00
2022-08-22T23:17:52.621Z,100.00
2022-08-22T23:20:20.897Z,100.00
2022-08-22T23:22:48.946Z,100.00
2022-08-22T23:25:17.117Z,100.00
2022-08-22T23:27:49.588Z,100.00
2022-08-22T23:30:21.351Z,100.00
2022-08-22T23:32:49.533Z,100.00
2022-08-22T23:35:17.734Z,100.00
2022-08-22T23:37:45.843Z,100.00
2022-08-22T23:40:13.946Z,100.00
2022-08-22T23:42:42.105Z,100.00
2022-08-22T23:45:11.944Z,100.00
2022-08-22T23:47:40.048Z,100.00
2022-08-22T23:50:08.565Z,100.00
2022-08-22T23:52:36.677Z,100.00
2022-08-22T23:55:05.743Z,100.00
2022-08-22T23:57:33.838Z,100.00
